sensor_id;sensor_type;location;lat;lon;timestamp;P1;durP1;ratioP1;P2;durP2;ratioP2
53925;SDS011;39836;52.754;6.866;2022-10-26T00:02:13;23.52;;;15.93;;
53925;SDS011;39836;52.754;6.866;2022-10-26T00:04:38;25.05;;;15.32;;
53925;SDS011;39836;52.754;6.866;2022-10-26T00:07:04;23.70;;;16.08;;
53925;SDS011;39836;52.754;6.866;2022-10-26T00:09:30;24.38;;;16.02;;
53925;SDS011;39836;52.754;6.866;2022-10-26T00:11:55;22.30;;;14.63;;
53925;SDS011;39836;52.754;6.866;2022-10-26T00:14:21;23.80;;;15.55;;
53925;SDS011;39836;52.754;6.866;2022-10-26T00:16:47;22.80;;;14.48;;
53925;SDS011;39836;52.754;6.866;2022-10-26T00:19:13;20.42;;;15.95;;
53925;SDS011;39836;52.754;6.866;2022-10-26T00:21:38;21.40;;;15.13;;
53925;SDS011;39836;52.754;6.866;2022-10-26T00:24:04;21.80;;;15.23;;
53925;SDS011;39836;52.754;6.866;2022-10-26T00:26:30;20.67;;;15.07;;
53925;SDS011;39836;52.754;6.866;2022-10-26T00:28:55;24.63;;;14.68;;
53925;SDS011;39836;52.754;6.866;2022-10-26T00:31:22;30.63;;;15.13;;
53925;SDS011;39836;52.754;6.866;2022-10-26T00:33:52;24.50;;;15.80;;
53925;SDS011;39836;52.754;6.866;2022-10-26T00:36:18;22.15;;;15.32;;
53925;SDS011;39836;52.754;6.866;2022-10-26T00:38:48;27.67;;;16.02;;
53925;SDS011;39836;52.754;6.866;2022-10-26T00:41:20;20.95;;;14.90;;
53925;SDS011;39836;52.754;6.866;2022-10-26T00:43:51;27.13;;;15.93;;
53925;SDS011;39836;52.754;6.866;2022-10-26T00:46:21;21.10;;;15.75;;
53925;SDS011;39836;52.754;6.866;2022-10-26T00:49:03;21.35;;;14.93;;
53925;SDS011;39836;52.754;6.866;2022-10-26T00:51:45;21.98;;;14.88;;
53925;SDS011;39836;52.754;6.866;2022-10-26T00:54:16;24.50;;;15.43;;
53925;SDS011;39836;52.754;6.866;2022-10-26T00:56:43;24.50;;;16.30;;
53925;SDS011;39836;52.754;6.866;2022-10-26T00:59:11;23.65;;;15.32;;
53925;SDS011;39836;52.754;6.866;2022-10-26T01:01:39;25.70;;;15.48;;
53925;SDS011;39836;52.754;6.866;2022-10-26T01:04:08;26.85;;;16.58;;
53925;SDS011;39836;52.754;6.866;2022-10-26T01:06:35;26.20;;;15.88;;
53925;SDS011;39836;52.754;6.866;2022-10-26T01:09:02;23.10;;;15.32;;
53925;SDS011;39836;52.754;6.866;2022-10-26T01:11:29;20.98;;;15.52;;
53925;SDS011;39836;52.754;6.866;2022-10-26T01:13:54;23.98;;;15.65;;
53925;SDS011;39836;52.754;6.866;2022-10-26T01:27:58;37.33;;;20.35;;
53925;SDS011;39836;52.754;6.866;2022-10-26T01:30:34;28.92;;;17.92;;
53925;SDS011;39836;52.754;6.866;2022-10-26T01:33:09;27.15;;;19.02;;
53925;SDS011;39836;52.754;6.866;2022-10-26T01:38:39;30.17;;;19.30;;
53925;SDS011;39836;52.754;6.866;2022-10-26T01:41:24;32.45;;;20.13;;
53925;SDS011;39836;52.754;6.866;2022-10-26T01:43:56;36.83;;;20.98;;
53925;SDS011;39836;52.754;6.866;2022-10-26T01:46:29;31.00;;;19.98;;
53925;SDS011;39836;52.754;6.866;2022-10-26T01:49:00;33.72;;;21.20;;
53925;SDS011;39836;52.754;6.866;2022-10-26T01:51:30;33.25;;;20.52;;
53925;SDS011;39836;52.754;6.866;2022-10-26T01:53:57;33.30;;;20.15;;
53925;SDS011;39836;52.754;6.866;2022-10-26T01:56:24;41.67;;;22.10;;
53925;SDS011;39836;52.754;6.866;2022-10-26T02:01:49;34.88;;;22.88;;
53925;SDS011;39836;52.754;6.866;2022-10-26T02:07:09;37.88;;;23.42;;
53925;SDS011;39836;52.754;6.866;2022-10-26T02:09:51;37.90;;;23.10;;
53925;SDS011;39836;52.754;6.866;2022-10-26T02:12:36;39.63;;;24.27;;
53925;SDS011;39836;52.754;6.866;2022-10-26T02:17:43;41.78;;;22.98;;
53925;SDS011;39836;52.754;6.866;2022-10-26T02:20:47;36.47;;;23.42;;
53925;SDS011;39836;52.754;6.866;2022-10-26T02:23:08;37.22;;;23.95;;
53925;SDS011;39836;52.754;6.866;2022-10-26T02:25:39;42.85;;;25.10;;
53925;SDS011;39836;52.754;6.866;2022-10-26T02:28:12;45.45;;;26.73;;
53925;SDS011;39836;52.754;6.866;2022-10-26T02:30:41;43.15;;;25.38;;
53925;SDS011;39836;52.754;6.866;2022-10-26T02:33:09;49.88;;;26.48;;
53925;SDS011;39836;52.754;6.866;2022-10-26T02:35:37;50.20;;;27.10;;
53925;SDS011;39836;52.754;6.866;2022-10-26T02:38:08;45.10;;;24.88;;
53925;SDS011;39836;52.754;6.866;2022-10-26T02:40:35;42.30;;;26.65;;
53925;SDS011;39836;52.754;6.866;2022-10-26T02:43:07;54.40;;;27.52;;
53925;SDS011;39836;52.754;6.866;2022-10-26T02:45:43;47.28;;;25.92;;
53925;SDS011;39836;52.754;6.866;2022-10-26T02:48:12;50.30;;;27.15;;
53925;SDS011;39836;52.754;6.866;2022-10-26T02:50:49;43.65;;;25.55;;
53925;SDS011;39836;52.754;6.866;2022-10-26T02:53:23;47.35;;;26.08;;
53925;SDS011;39836;52.754;6.866;2022-10-26T02:55:53;43.88;;;27.10;;
53925;SDS011;39836;52.754;6.866;2022-10-26T02:58:23;46.33;;;28.58;;
53925;SDS011;39836;52.754;6.866;2022-10-26T03:00:53;38.05;;;26.40;;
53925;SDS011;39836;52.754;6.866;2022-10-26T03:03:19;43.10;;;28.05;;
53925;SDS011;39836;52.754;6.866;2022-10-26T03:05:45;50.40;;;27.75;;
53925;SDS011;39836;52.754;6.866;2022-10-26T03:08:11;47.28;;;28.85;;
53925;SDS011;39836;52.754;6.866;2022-10-26T03:10:41;45.35;;;27.05;;
53925;SDS011;39836;52.754;6.866;2022-10-26T03:13:08;43.58;;;26.35;;
53925;SDS011;39836;52.754;6.866;2022-10-26T03:15:35;43.13;;;27.17;;
53925;SDS011;39836;52.754;6.866;2022-10-26T03:18:01;47.00;;;28.50;;
53925;SDS011;39836;52.754;6.866;2022-10-26T03:20:26;44.92;;;27.17;;
53925;SDS011;39836;52.754;6.866;2022-10-26T03:22:52;51.70;;;28.42;;
53925;SDS011;39836;52.754;6.866;2022-10-26T03:25:18;50.47;;;28.85;;
53925;SDS011;39836;52.754;6.866;2022-10-26T03:27:44;42.35;;;27.92;;
53925;SDS011;39836;52.754;6.866;2022-10-26T03:30:09;51.92;;;30.02;;
53925;SDS011;39836;52.754;6.866;2022-10-26T03:32:35;44.90;;;29.20;;
53925;SDS011;39836;52.754;6.866;2022-10-26T03:35:01;45.63;;;29.05;;
53925;SDS011;39836;52.754;6.866;2022-10-26T03:37:27;48.65;;;29.52;;
53925;SDS011;39836;52.754;6.866;2022-10-26T03:39:53;52.67;;;30.30;;
53925;SDS011;39836;52.754;6.866;2022-10-26T03:42:19;59.70;;;31.17;;
53925;SDS011;39836;52.754;6.866;2022-10-26T03:44:44;44.47;;;26.50;;
53925;SDS011;39836;52.754;6.866;2022-10-26T03:47:11;51.55;;;28.75;;
53925;SDS011;39836;52.754;6.866;2022-10-26T03:49:36;46.97;;;27.20;;
53925;SDS011;39836;52.754;6.866;2022-10-26T03:52:02;44.53;;;27.60;;
53925;SDS011;39836;52.754;6.866;2022-10-26T03:54:28;49.35;;;28.95;;
53925;SDS011;39836;52.754;6.866;2022-10-26T03:56:53;47.53;;;27.45;;
53925;SDS011;39836;52.754;6.866;2022-10-26T03:59:19;41.03;;;26.35;;
53925;SDS011;39836;52.754;6.866;2022-10-26T04:01:45;45.67;;;25.27;;
53925;SDS011;39836;52.754;6.866;2022-10-26T04:04:10;44.63;;;26.13;;
53925;SDS011;39836;52.754;6.866;2022-10-26T04:06:36;37.10;;;23.77;;
53925;SDS011;39836;52.754;6.866;2022-10-26T04:09:02;41.92;;;24.48;;
53925;SDS011;39836;52.754;6.866;2022-10-26T04:11:28;40.83;;;23.13;;
53925;SDS011;39836;52.754;6.866;2022-10-26T04:13:54;34.90;;;23.05;;
53925;SDS011;39836;52.754;6.866;2022-10-26T04:16:20;37.53;;;24.63;;
53925;SDS011;39836;52.754;6.866;2022-10-26T04:18:46;41.50;;;22.63;;
53925;SDS011;39836;52.754;6.866;2022-10-26T04:21:12;35.22;;;21.67;;
53925;SDS011;39836;52.754;6.866;2022-10-26T04:23:38;40.10;;;23.10;;
53925;SDS011;39836;52.754;6.866;2022-10-26T04:26:04;34.40;;;22.13;;
53925;SDS011;39836;52.754;6.866;2022-10-26T04:28:30;34.10;;;20.85;;
53925;SDS011;39836;52.754;6.866;2022-10-26T04:30:56;35.03;;;21.73;;
53925;SDS011;39836;52.754;6.866;2022-10-26T04:33:21;34.17;;;21.85;;
53925;SDS011;39836;52.754;6.866;2022-10-26T04:35:47;36.05;;;22.10;;
53925;SDS011;39836;52.754;6.866;2022-10-26T04:38:13;36.78;;;22.05;;
53925;SDS011;39836;52.754;6.866;2022-10-26T04:40:38;37.30;;;23.67;;
53925;SDS011;39836;52.754;6.866;2022-10-26T04:43:04;38.35;;;23.05;;
53925;SDS011;39836;52.754;6.866;2022-10-26T04:45:30;38.80;;;21.33;;
53925;SDS011;39836;52.754;6.866;2022-10-26T04:47:59;31.65;;;21.20;;
53925;SDS011;39836;52.754;6.866;2022-10-26T04:50:29;42.40;;;23.15;;
53925;SDS011;39836;52.754;6.866;2022-10-26T04:52:55;36.75;;;22.95;;
53925;SDS011;39836;52.754;6.866;2022-10-26T04:55:21;36.05;;;22.48;;
53925;SDS011;39836;52.754;6.866;2022-10-26T04:57:47;35.95;;;21.50;;
53925;SDS011;39836;52.754;6.866;2022-10-26T05:00:12;33.97;;;22.73;;
53925;SDS011;39836;52.754;6.866;2022-10-26T05:02:38;31.33;;;22.02;;
53925;SDS011;39836;52.754;6.866;2022-10-26T05:05:04;33.42;;;22.73;;
53925;SDS011;39836;52.754;6.866;2022-10-26T05:07:29;31.33;;;21.52;;
53925;SDS011;39836;52.754;6.866;2022-10-26T05:09:55;29.67;;;21.73;;
53925;SDS011;39836;52.754;6.866;2022-10-26T05:12:21;35.22;;;22.35;;
53925;SDS011;39836;52.754;6.866;2022-10-26T05:14:46;31.95;;;20.83;;
53925;SDS011;39836;52.754;6.866;2022-10-26T05:17:12;33.55;;;21.30;;
53925;SDS011;39836;52.754;6.866;2022-10-26T05:19:38;33.65;;;20.77;;
53925;SDS011;39836;52.754;6.866;2022-10-26T05:22:04;33.60;;;20.33;;
53925;SDS011;39836;52.754;6.866;2022-10-26T05:24:29;32.25;;;19.65;;
53925;SDS011;39836;52.754;6.866;2022-10-26T05:26:55;28.90;;;20.02;;
53925;SDS011;39836;52.754;6.866;2022-10-26T05:29:20;29.83;;;20.17;;
53925;SDS011;39836;52.754;6.866;2022-10-26T05:31:46;31.13;;;18.58;;
53925;SDS011;39836;52.754;6.866;2022-10-26T05:34:12;30.35;;;19.75;;
53925;SDS011;39836;52.754;6.866;2022-10-26T05:36:37;33.15;;;18.73;;
53925;SDS011;39836;52.754;6.866;2022-10-26T05:39:03;31.55;;;18.45;;
53925;SDS011;39836;52.754;6.866;2022-10-26T05:41:29;29.02;;;17.92;;
53925;SDS011;39836;52.754;6.866;2022-10-26T05:43:54;29.30;;;16.98;;
53925;SDS011;39836;52.754;6.866;2022-10-26T05:46:20;27.40;;;17.90;;
53925;SDS011;39836;52.754;6.866;2022-10-26T05:48:46;32.42;;;18.52;;
53925;SDS011;39836;52.754;6.866;2022-10-26T05:51:11;24.27;;;16.73;;
53925;SDS011;39836;52.754;6.866;2022-10-26T05:53:38;27.15;;;16.35;;
53925;SDS011;39836;52.754;6.866;2022-10-26T05:56:46;24.20;;;16.45;;
53925;SDS011;39836;52.754;6.866;2022-10-26T05:59:13;31.83;;;15.38;;
53925;SDS011;39836;52.754;6.866;2022-10-26T06:01:56;23.13;;;15.18;;
53925;SDS011;39836;52.754;6.866;2022-10-26T06:07:11;24.08;;;14.95;;
53925;SDS011;39836;52.754;6.866;2022-10-26T06:09:38;23.30;;;16.27;;
53925;SDS011;39836;52.754;6.866;2022-10-26T06:12:05;27.08;;;14.80;;
53925;SDS011;39836;52.754;6.866;2022-10-26T06:14:32;21.60;;;14.95;;
53925;SDS011;39836;52.754;6.866;2022-10-26T06:19:49;23.45;;;14.40;;
53925;SDS011;39836;52.754;6.866;2022-10-26T06:25:27;28.30;;;14.50;;
53925;SDS011;39836;52.754;6.866;2022-10-26T06:30:33;22.23;;;13.20;;
53925;SDS011;39836;52.754;6.866;2022-10-26T06:32:58;25.77;;;14.63;;
53925;SDS011;39836;52.754;6.866;2022-10-26T06:38:12;28.85;;;14.05;;
53925;SDS011;39836;52.754;6.866;2022-10-26T06:40:41;22.75;;;13.45;;
53925;SDS011;39836;52.754;6.866;2022-10-26T06:43:51;18.85;;;14.07;;
53925;SDS011;39836;52.754;6.866;2022-10-26T06:46:06;19.55;;;12.93;;
53925;SDS011;39836;52.754;6.866;2022-10-26T06:51:30;22.50;;;13.40;;
53925;SDS011;39836;52.754;6.866;2022-10-26T06:54:10;21.27;;;13.15;;
53925;SDS011;39836;52.754;6.866;2022-10-26T06:56:42;24.90;;;13.65;;
53925;SDS011;39836;52.754;6.866;2022-10-26T07:02:11;23.63;;;13.38;;
53925;SDS011;39836;52.754;6.866;2022-10-26T07:04:38;17.33;;;12.93;;
53925;SDS011;39836;52.754;6.866;2022-10-26T07:07:04;19.52;;;12.52;;
53925;SDS011;39836;52.754;6.866;2022-10-26T07:09:30;20.77;;;13.52;;
53925;SDS011;39836;52.754;6.866;2022-10-26T07:11:55;20.98;;;12.32;;
53925;SDS011;39836;52.754;6.866;2022-10-26T07:14:21;23.13;;;12.15;;
53925;SDS011;39836;52.754;6.866;2022-10-26T07:16:47;20.55;;;12.68;;
53925;SDS011;39836;52.754;6.866;2022-10-26T07:19:12;16.58;;;12.48;;
53925;SDS011;39836;52.754;6.866;2022-10-26T07:21:38;16.70;;;11.32;;
53925;SDS011;39836;52.754;6.866;2022-10-26T07:24:04;17.67;;;10.82;;
53925;SDS011;39836;52.754;6.866;2022-10-26T07:26:30;21.08;;;12.25;;
53925;SDS011;39836;52.754;6.866;2022-10-26T07:28:55;21.15;;;10.32;;
53925;SDS011;39836;52.754;6.866;2022-10-26T07:31:21;22.00;;;10.50;;
53925;SDS011;39836;52.754;6.866;2022-10-26T07:33:46;20.92;;;10.43;;
53925;SDS011;39836;52.754;6.866;2022-10-26T07:36:12;19.38;;;10.38;;
53925;SDS011;39836;52.754;6.866;2022-10-26T07:38:38;19.23;;;10.68;;
53925;SDS011;39836;52.754;6.866;2022-10-26T07:41:04;18.52;;;10.85;;
53925;SDS011;39836;52.754;6.866;2022-10-26T07:43:30;19.42;;;9.85;;
53925;SDS011;39836;52.754;6.866;2022-10-26T07:45:56;12.80;;;8.65;;
53925;SDS011;39836;52.754;6.866;2022-10-26T07:48:21;16.88;;;8.65;;
53925;SDS011;39836;52.754;6.866;2022-10-26T07:50:47;14.13;;;9.32;;
53925;SDS011;39836;52.754;6.866;2022-10-26T07:53:13;14.40;;;9.95;;
53925;SDS011;39836;52.754;6.866;2022-10-26T07:55:38;18.08;;;9.15;;
53925;SDS011;39836;52.754;6.866;2022-10-26T07:58:04;14.65;;;10.43;;
53925;SDS011;39836;52.754;6.866;2022-10-26T08:00:30;19.00;;;9.13;;
53925;SDS011;39836;52.754;6.866;2022-10-26T08:02:55;13.77;;;8.52;;
53925;SDS011;39836;52.754;6.866;2022-10-26T08:05:21;16.05;;;9.40;;
53925;SDS011;39836;52.754;6.866;2022-10-26T08:07:47;12.35;;;7.85;;
53925;SDS011;39836;52.754;6.866;2022-10-26T08:10:13;15.80;;;8.98;;
53925;SDS011;39836;52.754;6.866;2022-10-26T08:12:40;12.88;;;8.32;;
53925;SDS011;39836;52.754;6.866;2022-10-26T08:15:07;14.10;;;9.20;;
53925;SDS011;39836;52.754;6.866;2022-10-26T08:17:33;14.90;;;8.50;;
53925;SDS011;39836;52.754;6.866;2022-10-26T08:19:59;16.75;;;8.55;;
53925;SDS011;39836;52.754;6.866;2022-10-26T08:22:27;13.60;;;8.18;;
53925;SDS011;39836;52.754;6.866;2022-10-26T08:24:53;16.08;;;8.60;;
53925;SDS011;39836;52.754;6.866;2022-10-26T08:27:19;18.23;;;8.27;;
53925;SDS011;39836;52.754;6.866;2022-10-26T08:29:45;16.13;;;7.65;;
53925;SDS011;39836;52.754;6.866;2022-10-26T08:32:10;14.27;;;8.38;;
53925;SDS011;39836;52.754;6.866;2022-10-26T08:34:36;12.70;;;8.30;;
53925;SDS011;39836;52.754;6.866;2022-10-26T08:37:02;13.55;;;7.75;;
53925;SDS011;39836;52.754;6.866;2022-10-26T08:39:27;18.67;;;8.07;;
53925;SDS011;39836;52.754;6.866;2022-10-26T08:41:56;16.92;;;7.25;;
53925;SDS011;39836;52.754;6.866;2022-10-26T08:45:01;13.15;;;8.02;;
53925;SDS011;39836;52.754;6.866;2022-10-26T08:47:24;13.35;;;7.63;;
53925;SDS011;39836;52.754;6.866;2022-10-26T08:52:28;12.33;;;7.17;;
53925;SDS011;39836;52.754;6.866;2022-10-26T08:55:20;11.73;;;6.65;;
53925;SDS011;39836;52.754;6.866;2022-10-26T08:57:51;10.00;;;7.00;;
53925;SDS011;39836;52.754;6.866;2022-10-26T09:00:18;13.77;;;7.22;;
53925;SDS011;39836;52.754;6.866;2022-10-26T09:02:49;10.65;;;6.63;;
53925;SDS011;39836;52.754;6.866;2022-10-26T09:05:16;19.65;;;7.50;;
53925;SDS011;39836;52.754;6.866;2022-10-26T09:10:38;10.65;;;7.13;;
53925;SDS011;39836;52.754;6.866;2022-10-26T09:24:31;13.73;;;7.00;;
53925;SDS011;39836;52.754;6.866;2022-10-26T09:27:18;13.88;;;6.90;;
53925;SDS011;39836;52.754;6.866;2022-10-26T09:29:56;12.02;;;6.57;;
53925;SDS011;39836;52.754;6.866;2022-10-26T09:32:35;9.85;;;6.43;;
53925;SDS011;39836;52.754;6.866;2022-10-26T09:35:09;13.80;;;6.53;;
53925;SDS011;39836;52.754;6.866;2022-10-26T09:37:53;10.23;;;6.25;;
53925;SDS011;39836;52.754;6.866;2022-10-26T09:46:28;15.38;;;4.88;;
53925;SDS011;39836;52.754;6.866;2022-10-26T09:48:58;12.82;;;6.28;;
53925;SDS011;39836;52.754;6.866;2022-10-26T09:51:35;7.88;;;5.55;;
53925;SDS011;39836;52.754;6.866;2022-10-26T09:54:12;11.63;;;4.82;;
53925;SDS011;39836;52.754;6.866;2022-10-26T09:56:42;11.00;;;5.55;;
53925;SDS011;39836;52.754;6.866;2022-10-26T09:59:10;14.52;;;5.20;;
53925;SDS011;39836;52.754;6.866;2022-10-26T10:01:37;8.63;;;4.88;;
53925;SDS011;39836;52.754;6.866;2022-10-26T10:06:40;10.73;;;4.25;;
53925;SDS011;39836;52.754;6.866;2022-10-26T10:11:49;9.57;;;4.50;;
53925;SDS011;39836;52.754;6.866;2022-10-26T10:17:01;12.43;;;4.45;;
53925;SDS011;39836;52.754;6.866;2022-10-26T10:19:43;10.48;;;4.47;;
53925;SDS011;39836;52.754;6.866;2022-10-26T10:22:19;9.55;;;4.25;;
53925;SDS011;39836;52.754;6.866;2022-10-26T10:24:55;9.18;;;4.38;;
53925;SDS011;39836;52.754;6.866;2022-10-26T10:27:23;11.23;;;4.20;;
53925;SDS011;39836;52.754;6.866;2022-10-26T10:29:56;9.73;;;4.07;;
53925;SDS011;39836;52.754;6.866;2022-10-26T10:32:27;8.02;;;4.18;;
53925;SDS011;39836;52.754;6.866;2022-10-26T10:34:56;10.73;;;4.07;;
53925;SDS011;39836;52.754;6.866;2022-10-26T10:37:33;9.30;;;3.95;;
53925;SDS011;39836;52.754;6.866;2022-10-26T10:40:22;11.48;;;3.97;;
53925;SDS011;39836;52.754;6.866;2022-10-26T10:42:51;10.07;;;3.10;;
53925;SDS011;39836;52.754;6.866;2022-10-26T10:45:20;10.77;;;2.90;;
53925;SDS011;39836;52.754;6.866;2022-10-26T10:50:59;8.82;;;3.15;;
53925;SDS011;39836;52.754;6.866;2022-10-26T10:53:43;12.85;;;3.25;;
53925;SDS011;39836;52.754;6.866;2022-10-26T11:01:43;8.63;;;3.10;;
53925;SDS011;39836;52.754;6.866;2022-10-26T11:06:59;9.57;;;3.63;;
53925;SDS011;39836;52.754;6.866;2022-10-26T11:09:28;6.78;;;3.20;;
53925;SDS011;39836;52.754;6.866;2022-10-26T11:12:02;9.40;;;3.20;;
53925;SDS011;39836;52.754;6.866;2022-10-26T11:14:36;7.13;;;3.13;;
53925;SDS011;39836;52.754;6.866;2022-10-26T11:17:23;10.43;;;3.33;;
53925;SDS011;39836;52.754;6.866;2022-10-26T11:22:22;8.25;;;3.22;;
53925;SDS011;39836;52.754;6.866;2022-10-26T11:25:05;11.55;;;3.40;;
53925;SDS011;39836;52.754;6.866;2022-10-26T11:27:38;8.65;;;3.22;;
53925;SDS011;39836;52.754;6.866;2022-10-26T11:30:20;12.25;;;3.40;;
53925;SDS011;39836;52.754;6.866;2022-10-26T11:33:00;5.80;;;3.05;;
53925;SDS011;39836;52.754;6.866;2022-10-26T11:38:38;6.35;;;3.25;;
53925;SDS011;39836;52.754;6.866;2022-10-26T11:44:42;8.18;;;3.47;;
53925;SDS011;39836;52.754;6.866;2022-10-26T11:46:55;9.02;;;3.40;;
53925;SDS011;39836;52.754;6.866;2022-10-26T11:57:50;8.77;;;3.90;;
53925;SDS011;39836;52.754;6.866;2022-10-26T15:54:27;12.90;;;5.20;;
53925;SDS011;39836;52.754;6.866;2022-10-26T15:56:53;9.07;;;4.70;;
53925;SDS011;39836;52.754;6.866;2022-10-26T15:59:20;10.48;;;4.55;;
53925;SDS011;39836;52.754;6.866;2022-10-26T16:01:46;10.80;;;5.05;;
53925;SDS011;39836;52.754;6.866;2022-10-26T16:04:12;10.57;;;4.93;;
53925;SDS011;39836;52.754;6.866;2022-10-26T16:06:38;12.88;;;5.30;;
53925;SDS011;39836;52.754;6.866;2022-10-26T16:09:05;11.18;;;6.43;;
53925;SDS011;39836;52.754;6.866;2022-10-26T16:11:34;9.35;;;6.32;;
53925;SDS011;39836;52.754;6.866;2022-10-26T16:14:00;12.05;;;6.13;;
53925;SDS011;39836;52.754;6.866;2022-10-26T16:16:26;13.70;;;5.57;;
53925;SDS011;39836;52.754;6.866;2022-10-26T16:18:52;11.88;;;6.20;;
53925;SDS011;39836;52.754;6.866;2022-10-26T16:21:20;14.13;;;5.90;;
53925;SDS011;39836;52.754;6.866;2022-10-26T16:23:49;11.27;;;6.05;;
53925;SDS011;39836;52.754;6.866;2022-10-26T16:26:16;8.52;;;6.40;;
53925;SDS011;39836;52.754;6.866;2022-10-26T16:28:43;12.55;;;6.10;;
53925;SDS011;39836;52.754;6.866;2022-10-26T16:31:12;10.75;;;5.97;;
53925;SDS011;39836;52.754;6.866;2022-10-26T16:33:40;12.52;;;6.15;;
53925;SDS011;39836;52.754;6.866;2022-10-26T16:36:06;11.52;;;6.05;;
53925;SDS011;39836;52.754;6.866;2022-10-26T16:38:32;12.55;;;6.15;;
53925;SDS011;39836;52.754;6.866;2022-10-26T16:41:05;11.63;;;5.97;;
53925;SDS011;39836;52.754;6.866;2022-10-26T16:43:33;10.75;;;6.00;;
53925;SDS011;39836;52.754;6.866;2022-10-26T16:46:19;20.15;;;6.18;;
53925;SDS011;39836;52.754;6.866;2022-10-26T16:48:46;9.65;;;5.80;;
53925;SDS011;39836;52.754;6.866;2022-10-26T16:51:18;12.35;;;6.57;;
53925;SDS011;39836;52.754;6.866;2022-10-26T16:53:46;17.40;;;7.05;;
53925;SDS011;39836;52.754;6.866;2022-10-26T16:56:14;12.77;;;6.55;;
53925;SDS011;39836;52.754;6.866;2022-10-26T16:58:41;13.45;;;6.95;;
53925;SDS011;39836;52.754;6.866;2022-10-26T17:01:07;12.15;;;7.03;;
53925;SDS011;39836;52.754;6.866;2022-10-26T17:03:34;13.63;;;7.50;;
53925;SDS011;39836;52.754;6.866;2022-10-26T17:06:01;11.82;;;7.30;;
53925;SDS011;39836;52.754;6.866;2022-10-26T17:08:28;11.82;;;7.70;;
53925;SDS011;39836;52.754;6.866;2022-10-26T17:11:00;12.40;;;7.40;;
53925;SDS011;39836;52.754;6.866;2022-10-26T17:13:31;11.82;;;7.88;;
53925;SDS011;39836;52.754;6.866;2022-10-26T17:16:00;15.80;;;8.93;;
53925;SDS011;39836;52.754;6.866;2022-10-26T17:18:27;14.32;;;8.93;;
53925;SDS011;39836;52.754;6.866;2022-10-26T17:20:53;17.35;;;10.10;;
53925;SDS011;39836;52.754;6.866;2022-10-26T17:23:19;17.25;;;9.88;;
53925;SDS011;39836;52.754;6.866;2022-10-26T17:25:44;12.65;;;8.88;;
53925;SDS011;39836;52.754;6.866;2022-10-26T17:28:10;8.98;;;7.47;;
53925;SDS011;39836;52.754;6.866;2022-10-26T17:30:37;11.07;;;7.28;;
53925;SDS011;39836;52.754;6.866;2022-10-26T17:33:03;10.82;;;7.43;;
53925;SDS011;39836;52.754;6.866;2022-10-26T17:35:30;15.65;;;8.13;;
53925;SDS011;39836;52.754;6.866;2022-10-26T17:37:57;12.10;;;7.72;;
53925;SDS011;39836;52.754;6.866;2022-10-26T17:40:22;10.82;;;7.63;;
53925;SDS011;39836;52.754;6.866;2022-10-26T17:42:48;15.95;;;8.68;;
53925;SDS011;39836;52.754;6.866;2022-10-26T17:45:14;14.68;;;8.35;;
53925;SDS011;39836;52.754;6.866;2022-10-26T17:47:40;12.45;;;8.60;;
53925;SDS011;39836;52.754;6.866;2022-10-26T17:50:05;13.15;;;8.32;;
53925;SDS011;39836;52.754;6.866;2022-10-26T17:52:32;16.17;;;9.02;;
53925;SDS011;39836;52.754;6.866;2022-10-26T17:54:57;15.38;;;9.25;;
53925;SDS011;39836;52.754;6.866;2022-10-26T17:57:23;14.57;;;10.07;;
53925;SDS011;39836;52.754;6.866;2022-10-26T17:59:49;15.55;;;9.32;;
53925;SDS011;39836;52.754;6.866;2022-10-26T18:02:14;16.50;;;9.85;;
53925;SDS011;39836;52.754;6.866;2022-10-26T18:04:40;13.55;;;9.20;;
53925;SDS011;39836;52.754;6.866;2022-10-26T18:07:06;13.40;;;9.38;;
53925;SDS011;39836;52.754;6.866;2022-10-26T18:09:31;14.65;;;9.20;;
53925;SDS011;39836;52.754;6.866;2022-10-26T18:11:57;16.65;;;9.65;;
53925;SDS011;39836;52.754;6.866;2022-10-26T18:14:23;15.07;;;9.13;;
53925;SDS011;39836;52.754;6.866;2022-10-26T18:16:49;15.05;;;9.50;;
53925;SDS011;39836;52.754;6.866;2022-10-26T18:19:15;14.98;;;9.77;;
53925;SDS011;39836;52.754;6.866;2022-10-26T18:21:40;16.67;;;10.35;;
53925;SDS011;39836;52.754;6.866;2022-10-26T18:24:06;14.45;;;10.32;;
53925;SDS011;39836;52.754;6.866;2022-10-26T18:26:32;19.45;;;9.90;;
53925;SDS011;39836;52.754;6.866;2022-10-26T18:28:59;12.05;;;10.00;;
53925;SDS011;39836;52.754;6.866;2022-10-26T18:31:27;12.15;;;9.15;;
53925;SDS011;39836;52.754;6.866;2022-10-26T18:34:00;14.65;;;9.50;;
53925;SDS011;39836;52.754;6.866;2022-10-26T18:36:27;15.57;;;9.95;;
53925;SDS011;39836;52.754;6.866;2022-10-26T18:38:54;14.18;;;9.07;;
53925;SDS011;39836;52.754;6.866;2022-10-26T18:41:21;17.95;;;10.40;;
53925;SDS011;39836;52.754;6.866;2022-10-26T18:43:49;15.68;;;10.48;;
53925;SDS011;39836;52.754;6.866;2022-10-26T18:46:17;19.00;;;10.15;;
53925;SDS011;39836;52.754;6.866;2022-10-26T18:48:48;14.70;;;10.63;;
53925;SDS011;39836;52.754;6.866;2022-10-26T18:51:16;14.27;;;9.82;;
53925;SDS011;39836;52.754;6.866;2022-10-26T18:53:43;15.38;;;10.00;;
53925;SDS011;39836;52.754;6.866;2022-10-26T18:56:11;14.40;;;9.25;;
53925;SDS011;39836;52.754;6.866;2022-10-26T18:58:42;13.73;;;9.55;;
53925;SDS011;39836;52.754;6.866;2022-10-26T19:03:45;13.98;;;9.65;;
53925;SDS011;39836;52.754;6.866;2022-10-26T19:08:39;12.68;;;9.55;;
53925;SDS011;39836;52.754;6.866;2022-10-26T19:11:06;15.30;;;9.85;;
53925;SDS011;39836;52.754;6.866;2022-10-26T19:13:34;14.70;;;9.25;;
53925;SDS011;39836;52.754;6.866;2022-10-26T19:16:03;16.88;;;8.88;;
53925;SDS011;39836;52.754;6.866;2022-10-26T19:18:31;18.48;;;10.82;;
53925;SDS011;39836;52.754;6.866;2022-10-26T19:21:01;14.85;;;8.85;;
53925;SDS011;39836;52.754;6.866;2022-10-26T19:23:30;19.77;;;9.90;;
53925;SDS011;39836;52.754;6.866;2022-10-26T19:25:59;15.80;;;8.00;;
53925;SDS011;39836;52.754;6.866;2022-10-26T19:28:26;10.23;;;7.38;;
53925;SDS011;39836;52.754;6.866;2022-10-26T19:30:52;19.00;;;8.23;;
53925;SDS011;39836;52.754;6.866;2022-10-26T19:33:18;15.70;;;8.07;;
53925;SDS011;39836;52.754;6.866;2022-10-26T19:35:44;14.45;;;8.43;;
53925;SDS011;39836;52.754;6.866;2022-10-26T19:38:10;13.88;;;7.50;;
53925;SDS011;39836;52.754;6.866;2022-10-26T19:40:36;12.80;;;7.68;;
53925;SDS011;39836;52.754;6.866;2022-10-26T19:43:01;16.17;;;7.82;;
53925;SDS011;39836;52.754;6.866;2022-10-26T19:45:27;10.95;;;7.72;;
53925;SDS011;39836;52.754;6.866;2022-10-26T19:47:53;15.00;;;7.85;;
53925;SDS011;39836;52.754;6.866;2022-10-26T19:50:19;13.95;;;7.47;;
53925;SDS011;39836;52.754;6.866;2022-10-26T19:52:45;10.02;;;6.85;;
53925;SDS011;39836;52.754;6.866;2022-10-26T19:55:10;13.75;;;7.15;;
53925;SDS011;39836;52.754;6.866;2022-10-26T19:57:36;15.82;;;7.22;;
53925;SDS011;39836;52.754;6.866;2022-10-26T20:00:02;10.60;;;6.43;;
53925;SDS011;39836;52.754;6.866;2022-10-26T20:02:28;16.15;;;6.68;;
53925;SDS011;39836;52.754;6.866;2022-10-26T20:04:54;14.02;;;6.75;;
53925;SDS011;39836;52.754;6.866;2022-10-26T20:07:19;11.52;;;6.90;;
53925;SDS011;39836;52.754;6.866;2022-10-26T20:09:46;11.55;;;6.70;;
53925;SDS011;39836;52.754;6.866;2022-10-26T20:12:12;13.48;;;6.90;;
53925;SDS011;39836;52.754;6.866;2022-10-26T20:14:38;12.50;;;6.68;;
53925;SDS011;39836;52.754;6.866;2022-10-26T20:17:04;16.25;;;6.68;;
53925;SDS011;39836;52.754;6.866;2022-10-26T20:19:31;15.15;;;7.75;;